createdAt,value
2023-03-26T00:03:20.481Z,6.76
2023-03-26T00:08:24.437Z,6.76
2023-03-26T00:13:28.234Z,6.77
2023-03-26T00:18:31.891Z,6.77
2023-03-26T00:23:36.432Z,6.75
2023-03-26T00:28:40.413Z,6.70
2023-03-26T00:33:43.706Z,6.65
2023-03-26T00:38:49.502Z,6.61
2023-03-26T00:43:56.215Z,6.65
2023-03-26T00:48:59.766Z,6.68
2023-03-26T00:54:04.682Z,6.73
2023-03-26T00:59:09.265Z,6.73
2023-03-26T01:04:28.122Z,6.73
2023-03-26T01:09:36.047Z,6.74
2023-03-26T01:14:39.145Z,6.74
2023-03-26T01:19:48.597Z,6.74
2023-03-26T01:24:56.202Z,6.75
2023-03-26T01:30:06.772Z,6.77
2023-03-26T01:35:21.315Z,6.77
2023-03-26T01:40:29.362Z,6.80
2023-03-26T01:45:35.916Z,6.83
2023-03-26T01:50:38.567Z,6.79
2023-03-26T01:55:53.882Z,6.75
2023-03-26T02:01:04.354Z,6.68
2023-03-26T02:06:15.720Z,6.59
2023-03-26T02:11:20.091Z,6.50
2023-03-26T02:16:22.734Z,6.53
2023-03-26T02:21:27.178Z,6.52
2023-03-26T02:26:33.164Z,6.54
2023-03-26T02:31:35.902Z,6.63
2023-03-26T02:36:42.880Z,6.70
2023-03-26T02:41:46.869Z,6.76
2023-03-26T02:46:51.484Z,6.76
2023-03-26T02:51:56.380Z,6.62
2023-03-26T02:57:00.501Z,6.58
2023-03-26T03:02:03.307Z,6.63
2023-03-26T03:07:07.944Z,6.68
2023-03-26T03:12:11.882Z,6.75
2023-03-26T03:17:14.420Z,6.78
2023-03-26T03:22:16.986Z,6.78
2023-03-26T03:27:22.327Z,6.82
2023-03-26T03:32:24.971Z,6.80
2023-03-26T03:37:27.594Z,6.88
2023-03-26T03:42:31.581Z,6.87
2023-03-26T03:47:34.427Z,6.80
2023-03-26T03:52:37.078Z,6.83
2023-03-26T03:57:41.248Z,6.83
2023-03-26T04:02:46.136Z,6.89
2023-03-26T04:07:48.843Z,6.91
2023-03-26T04:12:52.855Z,6.93
2023-03-26T04:17:55.507Z,6.95
2023-03-26T04:22:58.112Z,6.98
2023-03-26T04:28:14.917Z,7.03
2023-03-26T04:33:17.531Z,7.02
2023-03-26T04:38:20.133Z,7.01
2023-03-26T04:43:24.018Z,7.03
2023-03-26T04:48:27.543Z,6.98
2023-03-26T04:53:39.229Z,6.98
2023-03-26T04:58:43.427Z,6.99
2023-03-26T05:03:46.251Z,6.97
2023-03-26T05:08:51.108Z,6.93
2023-03-26T05:13:55.045Z,6.92
2023-03-26T05:18:57.573Z,6.81
2023-03-26T05:24:00.528Z,6.73
2023-03-26T05:29:05.692Z,6.71
2023-03-26T05:34:08.291Z,6.72
2023-03-26T05:39:10.929Z,6.77
2023-03-26T05:44:14.867Z,6.75
2023-03-26T05:49:17.503Z,6.82
2023-03-26T05:54:20.102Z,6.86
2023-03-26T05:59:24.229Z,6.87
2023-03-26T06:04:28.645Z,6.95
2023-03-26T06:09:31.559Z,7.04
2023-03-26T06:14:35.546Z,7.18
2023-03-26T06:19:38.254Z,7.22
2023-03-26T06:24:41.921Z,7.30
2023-03-26T06:29:45.922Z,7.37
2023-03-26T06:34:49.565Z,7.39
2023-03-26T06:39:52.245Z,7.40
2023-03-26T06:44:56.364Z,7.37
2023-03-26T06:49:59.121Z,7.33
2023-03-26T06:55:10.723Z,7.36
2023-03-26T07:00:35.597Z,7.34
2023-03-26T07:05:39.552Z,7.30
2023-03-26T07:10:42.435Z,7.34
2023-03-26T07:15:51.745Z,7.38
2023-03-26T07:20:56.288Z,7.53
2023-03-26T07:26:03.375Z,7.62
2023-03-26T07:31:25.000Z,7.62
2023-03-26T07:36:36.098Z,7.66
2023-03-26T07:41:47.177Z,7.72
2023-03-26T07:46:53.372Z,7.70
2023-03-26T07:51:57.779Z,7.57
2023-03-26T07:57:05.983Z,7.62
2023-03-26T08:02:41.301Z,7.45
2023-03-26T08:07:57.222Z,7.39
2023-03-26T08:13:11.587Z,7.44
2023-03-26T08:18:27.714Z,7.42
2023-03-26T08:23:36.025Z,7.61
2023-03-26T08:29:03.968Z,7.56
2023-03-26T08:34:12.101Z,7.68
2023-03-26T08:39:16.133Z,7.88
2023-03-26T08:45:09.246Z,8.12
2023-03-26T08:50:41.293Z,8.03
2023-03-26T08:55:53.788Z,7.99
2023-03-26T09:01:27.716Z,8.02
2023-03-26T09:07:06.862Z,7.89
2023-03-26T09:12:40.793Z,7.90
2023-03-26T09:18:16.988Z,7.86
2023-03-26T09:23:32.142Z,7.76
2023-03-26T09:29:18.032Z,7.78
2023-03-26T09:34:29.965Z,7.83
2023-03-26T09:39:43.711Z,7.87
2023-03-26T09:45:21.072Z,7.96
2023-03-26T09:50:36.914Z,8.05
2023-03-26T09:55:52.294Z,8.12
2023-03-26T10:01:05.672Z,8.18
2023-03-26T10:06:28.226Z,8.32
2023-03-26T10:11:52.606Z,8.25
2023-03-26T10:17:07.656Z,8.34
2023-03-26T10:22:25.343Z,8.42
2023-03-26T10:27:44.943Z,8.28
2023-03-26T10:32:56.490Z,8.12
2023-03-26T10:38:14.643Z,7.82
2023-03-26T10:43:38.798Z,7.81
2023-03-26T10:49:01.029Z,7.48
2023-03-26T10:54:12.153Z,7.45
2023-03-26T10:59:17.982Z,7.58
2023-03-26T11:04:31.870Z,7.59
2023-03-26T11:09:40.215Z,7.61
2023-03-26T11:14:54.682Z,7.66
2023-03-26T11:20:04.418Z,7.78
2023-03-26T11:25:35.883Z,7.93
2023-03-26T11:30:47.968Z,8.26
2023-03-26T11:35:52.363Z,8.41
2023-03-26T11:40:59.091Z,8.40
2023-03-26T11:46:05.972Z,8.29
2023-03-26T11:51:14.816Z,8.26
2023-03-26T11:56:29.738Z,8.24
2023-03-26T12:01:50.431Z,8.21
2023-03-26T12:06:57.929Z,8.09
2023-03-26T12:12:03.539Z,8.12
2023-03-26T12:17:10.397Z,7.96
2023-03-26T12:22:30.686Z,7.94
2023-03-26T12:27:33.458Z,7.98
2023-03-26T12:32:46.738Z,7.92
2023-03-26T12:37:49.703Z,8.17
2023-03-26T12:44:45.936Z,8.24
2023-03-26T12:48:25.524Z,8.05
2023-03-26T12:53:42.991Z,8.10
2023-03-26T12:59:06.883Z,8.51
2023-03-26T13:04:28.772Z,8.77
2023-03-26T13:09:54.065Z,8.87
2023-03-26T13:15:09.809Z,8.78
2023-03-26T13:20:29.099Z,9.10
2023-03-26T13:25:38.938Z,9.54
2023-03-26T13:30:50.063Z,9.38
2023-03-26T13:36:24.069Z,9.13
2023-03-26T13:41:41.389Z,9.02
2023-03-26T13:46:48.503Z,9.10
2023-03-26T13:51:59.764Z,9.33
2023-03-26T13:57:13.277Z,9.28
2023-03-26T14:02:27.989Z,9.30
2023-03-26T14:07:40.234Z,9.06
2023-03-26T14:12:52.448Z,9.00
2023-03-26T14:18:06.237Z,9.29
2023-03-26T14:23:27.533Z,9.46
2023-03-26T14:28:56.136Z,9.43
2023-03-26T14:34:35.010Z,9.23
2023-03-26T14:40:23.131Z,9.15
2023-03-26T14:45:44.982Z,9.22
2023-03-26T14:51:08.166Z,9.14
2023-03-26T14:56:43.566Z,8.74
2023-03-26T15:02:39.498Z,8.47
2023-03-26T15:08:05.989Z,8.60
2023-03-26T15:13:35.344Z,8.23
2023-03-26T15:19:17.856Z,8.10
2023-03-26T15:24:50.885Z,8.05
2023-03-26T15:30:25.016Z,7.81
2023-03-26T15:35:57.482Z,7.68
2023-03-26T15:41:16.581Z,7.62
2023-03-26T15:46:35.941Z,7.57
2023-03-26T15:51:47.726Z,7.50
2023-03-26T15:57:17.595Z,7.29
2023-03-26T16:02:37.437Z,7.18
2023-03-26T16:07:53.675Z,7.09
2023-03-26T16:13:23.835Z,7.03
2023-03-26T16:18:30.587Z,6.92
2023-03-26T16:23:47.803Z,7.00
2023-03-26T16:29:18.061Z,6.93
2023-03-26T16:34:27.976Z,6.97
2023-03-26T16:39:42.349Z,6.86
2023-03-26T16:44:52.919Z,6.79
2023-03-26T16:50:10.649Z,6.67
2023-03-26T16:55:27.307Z,6.63
2023-03-26T17:00:48.071Z,6.56
2023-03-26T17:06:06.346Z,6.36
2023-03-26T17:11:22.929Z,6.12
2023-03-26T17:16:31.121Z,6.05
2023-03-26T17:21:47.348Z,5.99
2023-03-26T17:26:58.394Z,5.97
2023-03-26T17:32:08.676Z,5.87
2023-03-26T17:37:28.991Z,5.83
2023-03-26T17:42:33.636Z,5.68
2023-03-26T17:47:40.384Z,5.55
2023-03-26T17:52:53.989Z,5.42
2023-03-26T17:57:58.884Z,5.29
2023-03-26T18:03:05.514Z,5.18
2023-03-26T18:08:37.069Z,5.04
2023-03-26T18:13:55.481Z,4.92
2023-03-26T18:19:00.631Z,4.79
2023-03-26T18:24:06.964Z,4.62
2023-03-26T18:29:14.092Z,4.37
2023-03-26T18:34:18.830Z,4.10
2023-03-26T18:39:22.713Z,3.90
2023-03-26T18:44:25.419Z,3.75
2023-03-26T18:49:29.750Z,3.57
2023-03-26T18:54:36.630Z,3.49
2023-03-26T18:59:45.441Z,3.44
2023-03-26T19:04:50.248Z,3.43
2023-03-26T19:09:56.668Z,3.50
2023-03-26T19:15:07.676Z,3.39
2023-03-26T19:20:16.397Z,3.18
2023-03-26T19:25:24.593Z,3.06
2023-03-26T19:30:31.747Z,3.05
2023-03-26T19:35:38.718Z,3.00
2023-03-26T19:40:44.816Z,2.91
2023-03-26T19:46:00.487Z,2.86
2023-03-26T19:51:06.137Z,2.85
2023-03-26T19:56:18.768Z,2.68
2023-03-26T20:01:23.825Z,2.54
2023-03-26T20:06:42.452Z,2.46
2023-03-26T20:11:47.463Z,2.34
2023-03-26T20:16:50.130Z,2.15
2023-03-26T20:21:52.808Z,1.96
2023-03-26T20:26:56.730Z,1.86
2023-03-26T20:31:59.292Z,1.67
2023-03-26T20:37:01.904Z,1.73
2023-03-26T20:42:06.271Z,1.83
2023-03-26T20:47:10.455Z,1.89
2023-03-26T20:52:15.399Z,1.96
2023-03-26T20:57:20.166Z,1.99
2023-03-26T21:02:23.387Z,2.01
2023-03-26T21:07:27.068Z,2.01
2023-03-26T21:12:34.099Z,2.02
2023-03-26T21:17:37.488Z,2.00
2023-03-26T21:22:47.020Z,1.94
2023-03-26T21:28:01.390Z,1.87
2023-03-26T21:33:05.256Z,1.72
2023-03-26T21:38:09.381Z,1.63
2023-03-26T21:43:13.966Z,1.39
2023-03-26T21:48:18.303Z,1.23
2023-03-26T21:53:22.357Z,1.17
2023-03-26T21:58:42.494Z,1.14
2023-03-26T22:03:56.217Z,1.06
2023-03-26T22:09:00.787Z,0.96
2023-03-26T22:14:04.944Z,0.83
2023-03-26T22:19:07.498Z,0.88
2023-03-26T22:24:10.078Z,0.85
2023-03-26T22:29:14.195Z,0.71
2023-03-26T22:34:16.760Z,0.57
2023-03-26T22:39:19.408Z,0.51
2023-03-26T22:44:23.347Z,0.49
2023-03-26T22:49:27.471Z,0.39
2023-03-26T22:54:30.042Z,0.28
2023-03-26T22:59:33.968Z,0.19
2023-03-26T23:04:37.692Z,0.14
2023-03-26T23:09:40.365Z,0.11
2023-03-26T23:14:44.442Z,0.02
2023-03-26T23:19:46.963Z,-0.07
2023-03-26T23:24:49.565Z,-0.07
2023-03-26T23:29:53.552Z,-0.11
2023-03-26T23:34:56.399Z,-0.08
2023-03-26T23:40:00.448Z,-0.13
2023-03-26T23:45:04.468Z,-0.10
2023-03-26T23:50:08.191Z,-0.17
2023-03-26T23:55:10.949Z,-0.30
